Time;durP1;ratioP1;P1;durP2;ratioP2;P2;SDS_P1;SDS_P2;PMS_P1;PMS_P2;Temp;Humidity;BMP_temperature;BMP_pressure;BME280_temperature;BME280_humidity;BME280_pressure;Samples;Min_cycle;Max_cycle;Signal;HPM_P1;HPM_P2
2021/05/06 00:32:41;;;;;;;0.13;0.13;;;;;;;;;;5014701;28;20208;-65
2021/05/06 00:35:08;;;;;;;0.10;0.10;;;;;;;;;;5012526;28;20307;-65
2021/05/06 00:37:45;;;;;;;0.00;0.00;;;;;;;;;;5012156;28;20245;-65
2021/05/06 00:40:13;;;;;;;0.20;0.20;;;;;;;;;;5010278;28;20732;-65
2021/05/06 00:42:56;;;;;;;0.00;0.00;;;;;;;;;;5014183;28;20309;-65
2021/05/06 00:46:12;;;;;;;0.13;0.07;;;;;;;;;;5012422;28;20288;-65
2021/05/06 00:54:24;;;;;;;0.43;0.40;;;;;;;;;;5020333;28;20198;-65
2021/05/06 00:56:57;;;;;;;0.00;0.00;;;;;;;;;;5012637;28;20216;-65
2021/05/06 00:59:38;;;;;;;0.47;0.40;;;;;;;;;;5021250;28;20185;-65
2021/05/06 01:02:19;;;;;;;0.30;0.30;;;;;;;;;;5017014;28;20210;-65
2021/05/06 01:10:46;;;;;;;0.00;0.00;;;;;;;;;;4990804;28;20192;-66
2021/05/06 01:13:16;;;;;;;0.60;0.60;;;;;;;;;;5017128;28;20189;-64
2021/05/06 01:15:43;;;;;;;0.00;0.00;;;;;;;;;;5012600;28;20707;-64
2021/05/06 01:18:09;;;;;;;0.47;0.40;;;;;;;;;;5010803;28;20215;-65
2021/05/06 01:20:36;;;;;;;2.43;0.43;;;;;;;;;;5012725;28;20173;-65
2021/05/06 01:23:03;;;;;;;1.63;1.23;;;;;;;;;;5021057;28;20971;-65
2021/05/06 01:25:29;;;;;;;0.83;0.40;;;;;;;;;;5020788;28;20191;-65
2021/05/06 01:28:07;;;;;;;1.50;1.40;;;;;;;;;;5012230;28;20742;-65
2021/05/06 01:30:47;;;;;;;3.20;1.23;;;;;;;;;;5016118;28;20195;-65
2021/05/06 01:35:54;;;;;;;0.77;0.27;;;;;;;;;;5024795;28;20230;-64
2021/05/06 01:59:18;;;;;;;0.37;0.37;;;;;;;;;;5017207;28;20195;-64
2021/05/06 02:01:45;;;;;;;0.10;0.10;;;;;;;;;;5009562;28;20187;-64
2021/05/06 02:04:11;;;;;;;0.17;0.10;;;;;;;;;;5016634;28;20660;-65
2021/05/06 02:06:38;;;;;;;2.00;0.63;;;;;;;;;;5020115;28;20712;-65
2021/05/06 02:09:05;;;;;;;0.20;0.20;;;;;;;;;;5018843;28;20246;-65
2021/05/06 02:11:31;;;;;;;0.00;0.00;;;;;;;;;;5020090;28;20188;-65
2021/05/06 02:13:59;;;;;;;0.00;0.00;;;;;;;;;;5016882;28;20198;-64
2021/05/06 02:16:38;;;;;;;0.00;0.00;;;;;;;;;;5013853;28;20230;-64
2021/05/06 02:19:08;;;;;;;1.03;0.20;;;;;;;;;;5022937;28;20191;-64
2021/05/06 02:21:34;;;;;;;0.10;0.10;;;;;;;;;;5016022;28;20731;-64
2021/05/06 02:24:01;;;;;;;0.20;0.07;;;;;;;;;;5019947;28;20183;-65
2021/05/06 02:26:28;;;;;;;0.00;0.00;;;;;;;;;;5018105;28;20203;-65
2021/05/06 02:28:54;;;;;;;0.00;0.00;;;;;;;;;;5017153;28;20186;-65
2021/05/06 02:31:21;;;;;;;4.00;0.63;;;;;;;;;;5014989;28;20183;-65
2021/05/06 02:33:48;;;;;;;6.23;0.70;;;;;;;;;;5017378;28;20196;-64
2021/05/06 02:36:15;;;;;;;0.40;0.40;;;;;;;;;;5017458;28;20538;-65
2021/05/06 02:38:41;;;;;;;0.20;0.20;;;;;;;;;;5013032;28;20212;-65
2021/05/06 02:41:08;;;;;;;1.50;0.67;;;;;;;;;;5015511;28;20195;-64
2021/05/06 02:43:34;;;;;;;0.20;0.13;;;;;;;;;;5015574;28;20180;-65
2021/05/06 02:46:01;;;;;;;0.10;0.10;;;;;;;;;;5018309;28;20252;-65
2021/05/06 02:48:27;;;;;;;0.00;0.00;;;;;;;;;;5017827;28;20200;-64
2021/05/06 02:50:58;;;;;;;0.27;0.27;;;;;;;;;;5018126;28;20543;-64
2021/05/06 02:53:27;;;;;;;0.00;0.00;;;;;;;;;;5017400;28;20199;-64
2021/05/06 02:56:06;;;;;;;5.60;0.67;;;;;;;;;;5013676;28;20212;-64
2021/05/06 02:58:47;;;;;;;1.60;0.43;;;;;;;;;;5014965;28;20203;-63
2021/05/06 03:04:03;;;;;;;4.00;0.67;;;;;;;;;;5013428;28;20270;-64
2021/05/06 03:06:34;;;;;;;0.93;0.10;;;;;;;;;;5013962;28;20317;-64
2021/05/06 03:09:10;;;;;;;1.07;0.30;;;;;;;;;;5014687;28;20177;-64
2021/05/06 03:24:51;;;;;;;0.57;0.57;;;;;;;;;;5014223;28;20297;-64
2021/05/06 03:27:19;;;;;;;6.07;0.53;;;;;;;;;;5014810;28;20183;-64
2021/05/06 03:30:00;;;;;;;0.00;0.00;;;;;;;;;;5015396;28;20198;-64
2021/05/06 03:35:37;;;;;;;1.40;0.77;;;;;;;;;;4969552;28;20223;-64
2021/05/06 04:16:10;;;;;;;0.00;0.00;;;;;;;;;;5013558;28;20775;-65
2021/05/06 04:18:36;;;;;;;0.00;0.00;;;;;;;;;;5007662;28;20192;-65
2021/05/06 04:26:40;;;;;;;0.10;0.10;;;;;;;;;;5011821;28;20187;-65
2021/05/06 04:37:25;;;;;;;0.00;0.00;;;;;;;;;;5015119;28;20202;-65
2021/05/06 04:39:58;;;;;;;1.70;0.80;;;;;;;;;;5012413;28;20187;-65
2021/05/06 04:50:27;;;;;;;0.00;0.00;;;;;;;;;;5012932;28;20243;-65
2021/05/06 04:55:47;;;;;;;0.00;0.00;;;;;;;;;;5011253;28;20281;-66
2021/05/06 05:03:58;;;;;;;0.03;0.03;;;;;;;;;;5011216;28;20613;-65
2021/05/06 05:06:31;;;;;;;0.00;0.00;;;;;;;;;;5012366;28;20197;-65
2021/05/06 05:09:23;;;;;;;0.60;0.37;;;;;;;;;;5012860;28;20274;-65
2021/05/06 05:12:00;;;;;;;0.53;0.37;;;;;;;;;;5014076;28;20228;-65
2021/05/06 05:14:36;;;;;;;0.83;0.30;;;;;;;;;;5012992;28;20919;-65
2021/05/06 05:20:37;;;;;;;0.23;0.23;;;;;;;;;;5010167;28;21065;-65
2021/05/06 05:25:38;;;;;;;8.40;3.20;;;;;;;;;;5014252;28;20681;-65
2021/05/06 05:28:05;;;;;;;0.00;0.00;;;;;;;;;;5012331;28;20874;-65
2021/05/06 05:30:33;;;;;;;0.00;0.00;;;;;;;;;;5012070;28;20188;-65
2021/05/06 05:33:00;;;;;;;0.50;0.50;;;;;;;;;;5013654;28;20742;-65
2021/05/06 13:08:50;;;;;;;0.00;0.00;;;;;;;;;;5074636;27;20573;-61
2021/05/06 13:11:21;;;;;;;0.00;0.00;;;;;;;;;;5065773;28;20183;-60
2021/05/06 13:13:49;;;;;;;0.10;0.10;;;;;;;;;;5058716;28;20276;-62
2021/05/06 13:16:17;;;;;;;2.83;2.63;;;;;;;;;;5063290;28;20187;-62
2021/05/06 13:19:25;;;;;;;0.00;0.00;;;;;;;;;;5055877;28;20571;-61
2021/05/06 13:21:53;;;;;;;0.00;0.00;;;;;;;;;;5012924;28;20422;-61
2021/05/06 13:24:19;;;;;;;0.10;0.10;;;;;;;;;;5050360;28;20198;-61
2021/05/06 13:26:47;;;;;;;0.67;0.00;;;;;;;;;;5054208;28;20330;-61
2021/05/06 13:29:15;;;;;;;0.67;0.67;;;;;;;;;;5055874;28;20189;-61
2021/05/06 13:31:46;;;;;;;3.70;0.53;;;;;;;;;;5065043;28;20642;-61
2021/05/06 13:34:15;;;;;;;0.00;0.00;;;;;;;;;;5059190;28;20809;-61
2021/05/06 13:36:46;;;;;;;0.10;0.10;;;;;;;;;;5058852;28;20315;-61
2021/05/06 13:39:13;;;;;;;0.10;0.10;;;;;;;;;;5061918;28;20192;-61
2021/05/06 13:41:47;;;;;;;9.37;4.70;;;;;;;;;;5057653;28;20188;-61
2021/05/06 13:44:15;;;;;;;0.20;0.20;;;;;;;;;;5061691;28;20221;-61
2021/05/06 13:46:45;;;;;;;0.13;0.13;;;;;;;;;;5066874;28;20223;-61
2021/05/06 13:49:12;;;;;;;0.47;0.10;;;;;;;;;;5065677;28;20187;-61
2021/05/06 13:51:38;;;;;;;0.10;0.10;;;;;;;;;;5056250;28;20437;-60
2021/05/06 13:54:05;;;;;;;0.10;0.10;;;;;;;;;;5055317;28;20184;-62
2021/05/06 13:56:32;;;;;;;0.60;0.27;;;;;;;;;;5067152;28;20191;-60
2021/05/06 13:58:58;;;;;;;3.77;0.30;;;;;;;;;;5066471;28;20190;-61
2021/05/06 14:01:25;;;;;;;0.10;0.00;;;;;;;;;;5056756;28;20187;-61
2021/05/06 14:03:51;;;;;;;0.13;0.13;;;;;;;;;;5055066;28;20257;-62
2021/05/06 14:06:18;;;;;;;0.00;0.00;;;;;;;;;;5061818;28;20191;-61
2021/05/06 14:08:45;;;;;;;1.57;1.30;;;;;;;;;;5061474;28;20245;-61
2021/05/06 14:11:11;;;;;;;0.20;0.07;;;;;;;;;;5054698;28;20841;-61
2021/05/06 14:13:39;;;;;;;1.80;1.70;;;;;;;;;;5061157;28;20903;-61
2021/05/06 14:16:06;;;;;;;0.43;0.20;;;;;;;;;;5052979;28;20221;-61
2021/05/06 14:18:32;;;;;;;0.83;0.60;;;;;;;;;;5050196;28;20944;-61
2021/05/06 14:21:07;;;;;;;4.30;0.53;;;;;;;;;;5059057;28;20750;-61
2021/05/06 14:23:39;;;;;;;1.90;0.30;;;;;;;;;;5047978;28;20197;-61
2021/05/06 14:26:07;;;;;;;0.33;0.33;;;;;;;;;;5041997;28;20188;-62
2021/05/06 14:28:33;;;;;;;0.73;0.20;;;;;;;;;;5041315;28;20203;-61
2021/05/06 14:31:00;;;;;;;5.33;0.53;;;;;;;;;;5052227;28;20197;-62
2021/05/06 14:33:26;;;;;;;0.60;0.60;;;;;;;;;;5042831;28;20184;-60
2021/05/06 14:35:53;;;;;;;2.73;0.57;;;;;;;;;;5048685;28;20848;-62
2021/05/06 14:38:20;;;;;;;1.57;0.80;;;;;;;;;;5048729;28;20195;-62
2021/05/06 14:40:47;;;;;;;0.00;0.00;;;;;;;;;;5044047;28;20192;-61
2021/05/06 14:43:14;;;;;;;0.53;0.53;;;;;;;;;;5048331;28;21045;-62
2021/05/06 14:45:40;;;;;;;0.50;0.50;;;;;;;;;;5049090;28;20545;-60
2021/05/06 14:48:10;;;;;;;0.00;0.00;;;;;;;;;;5055293;28;20211;-61
2021/05/06 14:50:37;;;;;;;0.67;0.53;;;;;;;;;;5040453;28;20719;-61
2021/05/06 14:53:04;;;;;;;0.37;0.37;;;;;;;;;;5052572;28;20302;-61
2021/05/06 14:55:31;;;;;;;1.90;0.77;;;;;;;;;;5048344;28;20894;-60
2021/05/06 14:57:57;;;;;;;0.20;0.20;;;;;;;;;;5050239;28;20245;-60
2021/05/06 15:00:24;;;;;;;0.60;0.60;;;;;;;;;;5047486;28;20198;-61
2021/05/06 15:02:51;;;;;;;3.57;0.67;;;;;;;;;;5042735;28;20195;-61
2021/05/06 15:05:19;;;;;;;4.50;2.10;;;;;;;;;;5040739;28;20590;-61
2021/05/06 15:07:46;;;;;;;0.07;0.07;;;;;;;;;;5051375;28;20238;-62
2021/05/06 15:10:13;;;;;;;0.67;0.67;;;;;;;;;;5043139;28;20186;-61
2021/05/06 15:12:46;;;;;;;1.70;0.50;;;;;;;;;;5044427;28;20265;-62
2021/05/06 15:15:17;;;;;;;0.90;0.70;;;;;;;;;;5041390;28;20202;-62
2021/05/06 15:17:51;;;;;;;0.10;0.10;;;;;;;;;;5054230;28;20182;-61
2021/05/06 15:20:17;;;;;;;0.77;0.47;;;;;;;;;;5051266;28;20184;-61
2021/05/06 15:22:44;;;;;;;4.97;0.97;;;;;;;;;;5051417;28;20264;-61
2021/05/06 15:25:11;;;;;;;0.37;0.20;;;;;;;;;;5042309;28;20256;-61
2021/05/06 15:27:42;;;;;;;2.87;0.60;;;;;;;;;;5041984;28;20195;-62
2021/05/06 15:30:09;;;;;;;0.10;0.10;;;;;;;;;;5046305;28;20197;-61
2021/05/06 15:32:36;;;;;;;0.00;0.00;;;;;;;;;;5055519;28;20629;-60
2021/05/06 15:35:03;;;;;;;2.77;0.77;;;;;;;;;;5047805;28;20198;-61
2021/05/06 15:37:29;;;;;;;1.10;0.50;;;;;;;;;;5048475;28;20269;-61
2021/05/06 15:39:56;;;;;;;0.30;0.30;;;;;;;;;;5043895;28;20234;-61
2021/05/06 15:42:24;;;;;;;0.00;0.00;;;;;;;;;;5048160;28;20186;-62
2021/05/06 15:44:50;;;;;;;0.00;0.00;;;;;;;;;;5049721;28;20194;-60
2021/05/06 15:47:17;;;;;;;19.30;2.03;;;;;;;;;;5061819;28;21006;-60
2021/05/06 15:49:44;;;;;;;0.30;0.30;;;;;;;;;;5055425;28;20191;-60
2021/05/06 15:52:11;;;;;;;3.80;3.60;;;;;;;;;;5046029;28;20264;-60
2021/05/06 15:54:38;;;;;;;0.20;0.20;;;;;;;;;;5041698;28;20285;-60
2021/05/06 15:57:06;;;;;;;0.77;0.60;;;;;;;;;;5046217;28;20723;-61
2021/05/06 15:59:34;;;;;;;0.10;0.10;;;;;;;;;;5041601;28;20199;-61
2021/05/06 16:02:01;;;;;;;0.10;0.10;;;;;;;;;;5048080;28;20885;-60
2021/05/06 16:04:30;;;;;;;0.63;0.60;;;;;;;;;;5041528;28;20192;-60
2021/05/06 16:06:57;;;;;;;4.53;0.83;;;;;;;;;;5047149;28;20228;-60
2021/05/06 16:09:23;;;;;;;1.90;0.47;;;;;;;;;;5040490;28;20178;-61
2021/05/06 16:11:53;;;;;;;0.20;0.20;;;;;;;;;;5039927;28;20605;-61
2021/05/06 16:14:22;;;;;;;0.40;0.40;;;;;;;;;;5052000;28;20217;-61
2021/05/06 16:16:48;;;;;;;4.57;3.93;;;;;;;;;;5045634;28;20193;-61
2021/05/06 16:19:15;;;;;;;0.10;0.10;;;;;;;;;;5039466;28;20214;-60
2021/05/06 16:21:44;;;;;;;0.97;0.97;;;;;;;;;;5052882;28;20196;-62
2021/05/06 16:24:13;;;;;;;0.10;0.10;;;;;;;;;;5046107;28;20191;-62
2021/05/06 16:26:40;;;;;;;1.30;1.27;;;;;;;;;;5046647;28;20188;-62
2021/05/06 16:29:07;;;;;;;1.73;0.77;;;;;;;;;;5051241;28;20298;-62
2021/05/06 16:31:33;;;;;;;0.67;0.53;;;;;;;;;;5040353;28;20998;-62
2021/05/06 16:34:03;;;;;;;0.00;0.00;;;;;;;;;;5052006;28;20225;-62
2021/05/06 16:42:14;;;;;;;0.50;0.43;;;;;;;;;;5022784;28;20194;-64
2021/05/06 16:44:41;;;;;;;0.07;0.07;;;;;;;;;;5017258;28;20184;-61
2021/05/06 16:47:07;;;;;;;0.77;0.40;;;;;;;;;;5026911;28;20669;-62
2021/05/06 16:49:34;;;;;;;4.37;0.70;;;;;;;;;;5037655;28;20234;-61
2021/05/06 16:52:10;;;;;;;2.00;0.63;;;;;;;;;;5039155;28;20194;-65
2021/05/06 16:54:37;;;;;;;0.00;0.00;;;;;;;;;;5041452;28;21123;-62
2021/05/06 16:57:03;;;;;;;5.23;1.60;;;;;;;;;;5047169;28;20218;-64
2021/05/06 16:59:35;;;;;;;0.20;0.20;;;;;;;;;;5050294;28;20185;-63
2021/05/06 17:02:12;;;;;;;0.10;0.10;;;;;;;;;;5047361;28;20240;-63
2021/05/06 17:04:42;;;;;;;12.67;1.07;;;;;;;;;;5039718;28;20198;-63
2021/05/06 17:07:08;;;;;;;0.10;0.10;;;;;;;;;;5048347;28;20333;-63
2021/05/06 17:09:38;;;;;;;0.20;0.20;;;;;;;;;;5041676;28;20198;-63
2021/05/06 17:12:08;;;;;;;0.90;0.63;;;;;;;;;;5045923;28;20198;-63
2021/05/06 17:14:34;;;;;;;0.00;0.00;;;;;;;;;;5039480;28;20667;-63
2021/05/06 17:17:01;;;;;;;0.10;0.10;;;;;;;;;;5052332;28;20198;-63
2021/05/06 17:19:28;;;;;;;0.37;0.37;;;;;;;;;;5051257;28;20202;-63
2021/05/06 17:21:54;;;;;;;0.20;0.20;;;;;;;;;;5043816;28;20189;-63
2021/05/06 17:24:24;;;;;;;1.23;1.03;;;;;;;;;;5042946;28;20187;-61
2021/05/06 17:26:50;;;;;;;0.77;0.30;;;;;;;;;;5047357;28;20188;-61
2021/05/06 17:29:17;;;;;;;0.00;0.00;;;;;;;;;;5038106;28;20574;-61
2021/05/06 17:31:43;;;;;;;0.00;0.00;;;;;;;;;;5038232;28;20238;-61
2021/05/06 17:34:10;;;;;;;0.20;0.20;;;;;;;;;;5042524;28;20187;-64
2021/05/06 17:36:36;;;;;;;0.20;0.20;;;;;;;;;;5040642;28;20190;-64
2021/05/06 17:39:03;;;;;;;0.00;0.00;;;;;;;;;;5049638;28;20738;-62
2021/05/06 17:41:30;;;;;;;0.10;0.10;;;;;;;;;;5052301;28;20219;-61
2021/05/06 17:43:56;;;;;;;0.10;0.10;;;;;;;;;;5047969;28;20296;-63
2021/05/06 17:46:23;;;;;;;2.50;0.60;;;;;;;;;;5051391;28;20277;-63
2021/05/06 17:48:49;;;;;;;0.00;0.00;;;;;;;;;;5040513;28;20214;-61
2021/05/06 17:51:16;;;;;;;0.30;0.30;;;;;;;;;;5042813;28;20180;-61
2021/05/06 17:53:42;;;;;;;1.30;0.53;;;;;;;;;;5045324;28;20295;-62
2021/05/06 17:56:09;;;;;;;0.73;0.20;;;;;;;;;;5040501;28;20707;-60
2021/05/06 17:58:38;;;;;;;3.37;1.77;;;;;;;;;;5051894;28;20194;-61
2021/05/06 18:01:05;;;;;;;0.00;0.00;;;;;;;;;;5045230;28;20539;-61
2021/05/06 18:03:33;;;;;;;0.00;0.00;;;;;;;;;;5048558;28;20804;-61
2021/05/06 18:05:59;;;;;;;0.30;0.30;;;;;;;;;;5042210;28;20192;-63
2021/05/06 18:08:26;;;;;;;0.40;0.20;;;;;;;;;;5040327;28;20807;-60
2021/05/06 18:11:18;;;;;;;0.33;0.20;;;;;;;;;;5055788;28;20183;-60
2021/05/06 18:13:44;;;;;;;0.10;0.10;;;;;;;;;;5038475;28;20396;-60
2021/05/06 18:16:11;;;;;;;0.00;0.00;;;;;;;;;;5040775;28;20185;-61
2021/05/06 18:18:37;;;;;;;0.07;0.07;;;;;;;;;;5041958;28;20652;-62
2021/05/06 18:21:04;;;;;;;0.73;0.33;;;;;;;;;;5048173;28;20199;-61
2021/05/06 18:23:30;;;;;;;0.23;0.23;;;;;;;;;;5041502;28;20217;-61
2021/05/06 18:25:57;;;;;;;0.73;0.47;;;;;;;;;;5044240;28;20266;-60
2021/05/06 18:28:24;;;;;;;0.37;0.30;;;;;;;;;;5052623;28;20242;-61
2021/05/06 18:30:50;;;;;;;3.20;2.27;;;;;;;;;;5045457;28;20189;-60
2021/05/06 18:33:17;;;;;;;0.00;0.00;;;;;;;;;;5042793;28;20661;-61
2021/05/06 18:35:43;;;;;;;0.97;0.30;;;;;;;;;;5042149;28;20298;-60
2021/05/06 18:38:12;;;;;;;0.00;0.00;;;;;;;;;;5042090;28;20196;-60
2021/05/06 18:40:38;;;;;;;0.00;0.00;;;;;;;;;;5042079;28;20658;-60
2021/05/06 18:43:05;;;;;;;0.00;0.00;;;;;;;;;;5041489;28;20197;-60
2021/05/06 18:45:32;;;;;;;1.17;0.63;;;;;;;;;;5037102;28;20193;-61
2021/05/06 18:47:59;;;;;;;0.80;0.63;;;;;;;;;;5037470;28;20964;-61
2021/05/06 18:50:26;;;;;;;0.00;0.00;;;;;;;;;;5037903;28;20175;-60
2021/05/06 18:52:55;;;;;;;1.90;0.97;;;;;;;;;;5041737;28;20190;-60
2021/05/06 18:55:21;;;;;;;0.10;0.10;;;;;;;;;;5039350;28;20186;-61
2021/05/06 18:57:48;;;;;;;2.10;0.27;;;;;;;;;;5053071;28;20860;-60
2021/05/06 19:00:15;;;;;;;0.93;0.20;;;;;;;;;;5047870;28;20202;-60
2021/05/06 19:02:43;;;;;;;8.10;2.53;;;;;;;;;;5040127;28;20300;-60
2021/05/06 19:05:10;;;;;;;0.20;0.00;;;;;;;;;;5040906;28;20549;-61
2021/05/06 19:07:39;;;;;;;0.37;0.37;;;;;;;;;;5058978;28;20234;-61
2021/05/06 19:10:06;;;;;;;3.20;2.80;;;;;;;;;;5036752;28;20260;-61
2021/05/06 19:12:34;;;;;;;0.20;0.20;;;;;;;;;;5036896;28;20909;-60
2021/05/06 19:15:01;;;;;;;0.00;0.00;;;;;;;;;;5043211;28;20190;-62
2021/05/06 19:17:27;;;;;;;0.07;0.07;;;;;;;;;;5044190;28;20186;-60
2021/05/06 19:19:54;;;;;;;0.20;0.20;;;;;;;;;;5040677;28;20584;-61
2021/05/06 19:22:21;;;;;;;0.00;0.00;;;;;;;;;;5045216;28;20669;-61
2021/05/06 19:24:47;;;;;;;0.00;0.00;;;;;;;;;;5047001;28;20177;-61
2021/05/06 19:27:14;;;;;;;0.00;0.00;;;;;;;;;;5051623;28;20188;-61
2021/05/06 19:29:40;;;;;;;0.00;0.00;;;;;;;;;;5037881;28;20187;-61
2021/05/06 19:32:07;;;;;;;0.13;0.10;;;;;;;;;;5044854;28;20200;-61
2021/05/06 19:34:34;;;;;;;0.47;0.40;;;;;;;;;;5044548;28;20980;-60
2021/05/06 19:37:01;;;;;;;0.97;0.30;;;;;;;;;;5044867;28;20262;-61
2021/05/06 19:39:27;;;;;;;0.00;0.00;;;;;;;;;;5045558;28;21037;-61
2021/05/06 19:41:55;;;;;;;0.17;0.17;;;;;;;;;;5046676;28;20256;-61
2021/05/06 19:44:27;;;;;;;0.00;0.00;;;;;;;;;;5042682;28;20193;-61
2021/05/06 19:49:26;;;;;;;0.30;0.30;;;;;;;;;;5045489;28;20201;-61
2021/05/06 19:51:53;;;;;;;0.47;0.47;;;;;;;;;;5042840;28;20178;-60
2021/05/06 19:54:20;;;;;;;1.50;0.30;;;;;;;;;;5038499;28;20190;-61
2021/05/06 19:56:46;;;;;;;1.00;0.30;;;;;;;;;;5048409;28;20186;-61
2021/05/06 19:59:13;;;;;;;0.37;0.37;;;;;;;;;;5040715;28;20183;-61
2021/05/06 20:01:41;;;;;;;0.00;0.00;;;;;;;;;;5040479;28;20187;-61
2021/05/06 20:04:08;;;;;;;0.50;0.10;;;;;;;;;;5045470;28;20197;-61
2021/05/06 20:06:35;;;;;;;2.33;0.77;;;;;;;;;;5051055;28;20187;-60
2021/05/06 20:09:01;;;;;;;0.00;0.00;;;;;;;;;;5043539;28;20223;-61
2021/05/06 20:11:28;;;;;;;0.33;0.23;;;;;;;;;;5039141;28;20272;-61
2021/05/06 20:13:55;;;;;;;0.83;0.20;;;;;;;;;;5045412;28;20193;-60
2021/05/06 20:16:21;;;;;;;2.27;0.10;;;;;;;;;;5052715;28;20193;-61
2021/05/06 20:18:51;;;;;;;21.07;1.13;;;;;;;;;;5042275;28;20190;-61
2021/05/06 20:23:45;;;;;;;1.50;0.57;;;;;;;;;;5040059;28;20186;-60
2021/05/06 20:26:13;;;;;;;2.67;0.47;;;;;;;;;;5056158;28;20283;-60
2021/05/06 20:28:40;;;;;;;2.97;0.83;;;;;;;;;;5043915;28;20218;-60
2021/05/06 20:31:06;;;;;;;1.37;0.60;;;;;;;;;;5052316;28;20273;-60
2021/05/06 20:33:33;;;;;;;0.10;0.10;;;;;;;;;;5048503;28;20199;-58
2021/05/06 20:36:00;;;;;;;2.37;0.63;;;;;;;;;;5045330;28;20218;-57
2021/05/06 20:38:27;;;;;;;0.60;0.60;;;;;;;;;;5038585;28;20183;-57
2021/05/06 20:40:55;;;;;;;0.33;0.10;;;;;;;;;;5033987;28;20195;-58
2021/05/06 20:43:27;;;;;;;0.00;0.00;;;;;;;;;;5031380;28;20190;-59
2021/05/06 20:45:53;;;;;;;0.00;0.00;;;;;;;;;;5033210;28;20183;-58
2021/05/06 20:48:20;;;;;;;8.40;1.30;;;;;;;;;;5034549;28;20228;-57
2021/05/06 20:50:47;;;;;;;0.77;0.23;;;;;;;;;;5040564;28;20186;-58
2021/05/06 20:53:15;;;;;;;0.10;0.10;;;;;;;;;;5032392;28;20186;-57
2021/05/06 20:55:42;;;;;;;0.00;0.00;;;;;;;;;;5067232;28;20794;-59
2021/05/06 20:58:09;;;;;;;0.30;0.20;;;;;;;;;;5035819;28;20195;-58
2021/05/06 21:00:35;;;;;;;0.23;0.13;;;;;;;;;;5033084;28;20236;-58
2021/05/06 21:03:03;;;;;;;0.20;0.20;;;;;;;;;;5030345;28;20203;-58
2021/05/06 21:05:29;;;;;;;0.00;0.00;;;;;;;;;;5034592;28;20181;-57
2021/05/06 21:07:56;;;;;;;0.00;0.00;;;;;;;;;;5034246;28;20236;-57
2021/05/06 21:10:22;;;;;;;0.10;0.10;;;;;;;;;;5036130;28;20314;-58
2021/05/06 21:12:49;;;;;;;0.57;0.23;;;;;;;;;;5033366;28;20410;-57
2021/05/06 21:15:16;;;;;;;0.00;0.00;;;;;;;;;;5041844;28;20270;-57
2021/05/06 21:17:43;;;;;;;0.00;0.00;;;;;;;;;;5027183;28;20226;-57
2021/05/06 21:20:09;;;;;;;3.20;1.20;;;;;;;;;;5037551;28;20191;-57
2021/05/06 21:22:36;;;;;;;0.30;0.30;;;;;;;;;;5037010;28;20610;-58
2021/05/06 21:25:03;;;;;;;0.50;0.20;;;;;;;;;;5035463;28;20204;-58
2021/05/06 21:27:30;;;;;;;0.00;0.00;;;;;;;;;;5031628;28;20441;-58
2021/05/06 21:29:56;;;;;;;0.77;0.73;;;;;;;;;;5035257;28;20183;-61
2021/05/06 21:32:23;;;;;;;0.00;0.00;;;;;;;;;;5033803;28;20233;-62
2021/05/06 21:34:50;;;;;;;0.07;0.07;;;;;;;;;;5031775;28;20307;-61
2021/05/06 21:37:16;;;;;;;0.17;0.13;;;;;;;;;;5034374;28;21037;-62
2021/05/06 21:39:43;;;;;;;0.00;0.00;;;;;;;;;;5036901;28;20282;-61
2021/05/06 21:42:10;;;;;;;0.30;0.30;;;;;;;;;;5041190;28;20191;-61
2021/05/06 21:44:36;;;;;;;0.63;0.63;;;;;;;;;;5042585;28;20198;-61
2021/05/06 21:47:07;;;;;;;0.00;0.00;;;;;;;;;;5039640;28;20203;-61
2021/05/06 21:49:35;;;;;;;0.00;0.00;;;;;;;;;;5041101;28;20274;-62
2021/05/06 21:52:02;;;;;;;0.00;0.00;;;;;;;;;;5035996;28;20264;-62
2021/05/06 21:54:29;;;;;;;0.20;0.20;;;;;;;;;;5035797;28;20179;-61
2021/05/06 21:56:56;;;;;;;0.00;0.00;;;;;;;;;;5038755;28;20188;-61
2021/05/06 21:59:24;;;;;;;0.00;0.00;;;;;;;;;;5038447;28;20233;-61
2021/05/06 22:01:50;;;;;;;9.13;1.30;;;;;;;;;;5035835;28;20227;-60
2021/05/06 22:04:17;;;;;;;0.57;0.37;;;;;;;;;;5040660;28;20183;-61
2021/05/06 22:06:43;;;;;;;0.20;0.20;;;;;;;;;;5035992;28;20921;-60
2021/05/06 22:09:12;;;;;;;0.20;0.10;;;;;;;;;;5042230;28;20216;-61
2021/05/06 22:11:38;;;;;;;0.00;0.00;;;;;;;;;;5041946;28;20176;-61
2021/05/06 22:14:05;;;;;;;0.37;0.23;;;;;;;;;;5039637;28;20187;-60
2021/05/06 22:16:32;;;;;;;3.03;0.30;;;;;;;;;;5036396;28;20198;-60
2021/05/06 22:18:58;;;;;;;0.00;0.00;;;;;;;;;;5040569;28;20660;-60
2021/05/06 22:21:28;;;;;;;0.00;0.00;;;;;;;;;;5037287;28;20270;-61
2021/05/06 22:23:55;;;;;;;0.37;0.30;;;;;;;;;;5036261;28;20195;-61
2021/05/06 22:26:22;;;;;;;0.27;0.27;;;;;;;;;;5038968;28;20665;-61
2021/05/06 22:28:48;;;;;;;0.20;0.20;;;;;;;;;;5036048;28;20222;-60
2021/05/06 22:31:15;;;;;;;0.00;0.00;;;;;;;;;;5041021;28;20183;-60
2021/05/06 22:33:42;;;;;;;0.00;0.00;;;;;;;;;;5040339;28;20199;-61
2021/05/06 22:36:08;;;;;;;0.00;0.00;;;;;;;;;;5032118;28;20194;-60
2021/05/06 22:38:36;;;;;;;0.70;0.53;;;;;;;;;;5034868;28;20233;-61
2021/05/06 22:41:02;;;;;;;0.00;0.00;;;;;;;;;;5041373;28;20195;-60
2021/05/06 22:43:29;;;;;;;0.33;0.27;;;;;;;;;;5037290;28;20247;-61
2021/05/06 22:45:56;;;;;;;0.00;0.00;;;;;;;;;;5039381;28;20750;-60
2021/05/06 22:48:22;;;;;;;0.73;0.20;;;;;;;;;;5036851;28;20351;-60
2021/05/06 22:50:49;;;;;;;0.40;0.20;;;;;;;;;;5033739;28;20191;-60
2021/05/06 22:53:15;;;;;;;0.20;0.20;;;;;;;;;;5037143;28;20289;-59
2021/05/06 22:55:42;;;;;;;0.20;0.20;;;;;;;;;;5041170;28;20902;-60
2021/05/06 22:58:08;;;;;;;1.70;1.20;;;;;;;;;;5041543;28;20236;-59
2021/05/06 23:00:39;;;;;;;0.00;0.00;;;;;;;;;;5035256;28;20190;-60
2021/05/06 23:03:07;;;;;;;0.00;0.00;;;;;;;;;;5034253;28;20246;-60
2021/05/06 23:05:34;;;;;;;0.00;0.00;;;;;;;;;;5040443;28;20196;-59
2021/05/06 23:08:01;;;;;;;0.00;0.00;;;;;;;;;;5034963;28;20660;-59
2021/05/06 23:10:27;;;;;;;0.00;0.00;;;;;;;;;;5036839;28;20182;-59
2021/05/06 23:12:54;;;;;;;0.00;0.00;;;;;;;;;;5033449;28;20195;-61
2021/05/06 23:15:21;;;;;;;0.00;0.00;;;;;;;;;;5041595;28;20180;-59
2021/05/06 23:17:47;;;;;;;2.37;0.63;;;;;;;;;;5036886;28;20193;-60
2021/05/06 23:20:18;;;;;;;0.30;0.30;;;;;;;;;;5036143;28;20264;-60
2021/05/06 23:22:45;;;;;;;0.67;0.17;;;;;;;;;;5041084;28;20221;-60
2021/05/06 23:25:12;;;;;;;0.00;0.00;;;;;;;;;;5035221;28;20188;-60
2021/05/06 23:27:38;;;;;;;0.00;0.00;;;;;;;;;;5039867;28;20324;-60
2021/05/06 23:30:05;;;;;;;0.00;0.00;;;;;;;;;;5036357;28;20187;-59
2021/05/06 23:32:32;;;;;;;2.67;0.73;;;;;;;;;;5034714;28;21234;-59
2021/05/06 23:34:59;;;;;;;0.03;0.03;;;;;;;;;;5037429;28;20209;-58
2021/05/06 23:37:25;;;;;;;0.00;0.00;;;;;;;;;;5034055;28;20187;-58
2021/05/06 23:39:52;;;;;;;1.90;0.30;;;;;;;;;;5039674;28;20198;-58
2021/05/06 23:42:18;;;;;;;0.10;0.10;;;;;;;;;;5034274;28;20946;-58
2021/05/06 23:44:45;;;;;;;0.57;0.57;;;;;;;;;;5038452;28;20198;-58
2021/05/06 23:47:11;;;;;;;0.00;0.00;;;;;;;;;;5033183;28;20365;-59
2021/05/06 23:49:39;;;;;;;0.00;0.00;;;;;;;;;;5031519;28;20202;-59
2021/05/06 23:52:07;;;;;;;0.33;0.33;;;;;;;;;;5034814;28;20770;-59
2021/05/06 23:54:34;;;;;;;0.37;0.37;;;;;;;;;;5030583;28;20941;-58
2021/05/06 23:57:01;;;;;;;0.17;0.13;;;;;;;;;;5035012;28;20302;-59
2021/05/06 23:59:28;;;;;;;1.27;0.60;;;;;;;;;;5036773;28;20899;-60
